This is the latest recevied weather packets stored in our database for station/object N0QWM. If no packets are shown the sender has not sent any weather packets the latest 10 day(s).
| Time | Temp. | Humidity | Pressure | Rain* | Wind** | Luminosity | Snow |
|---|---|---|---|---|---|---|---|
| 1787932839 | 32.22° C | 65% | 1022.6 hPa | 0 mm | - | 177 W/m² | - |
| 1787932533 | 32.22° C | 64% | 1022.8 hPa | 0 mm | - | 709 W/m² | - |
| 1787932228 | 31.67° C | 67% | 1022.7 hPa | 0 mm | - | 719 W/m² | - |
| 1787931927 | 31.11° C | 70% | 1022.5 hPa | 0 mm | - | 448 W/m² | - |
| 1787931627 | 31.67° C | 70% | 1022.5 hPa | 0 mm | - | 714 W/m² | - |
| 1787931327 | 31.67° C | 69% | 1022.7 hPa | 0 mm | - | 718 W/m² | - |
| 1787931022 | 31.11° C | 71% | 1022.5 hPa | 0 mm | - | 758 W/m² | - |
| 1787930721 | 31.11° C | 72% | 1022.6 hPa | 0 mm | - | 753 W/m² | - |
| 1787930416 | 31.11° C | 71% | 1022.6 hPa | 0 mm | - | 773 W/m² | - |
| 1787930113 | 31.11° C | 73% | 1022.6 hPa | 0 mm | - | 755 W/m² | - |
| 1787929809 | 30.56° C | 75% | 1022.7 hPa | 0 mm | - | 708 W/m² | - |
| 1787929505 | 30.56° C | 75% | 1022.7 hPa | 0 mm | - | 663 W/m² | - |
| 1787929205 | 30° C | 76% | 1022.6 hPa | 0 mm | - | 682 W/m² | - |
| 1787928897 | 29.44° C | 79% | 1022.5 hPa | 0 mm | - | 664 W/m² | - |
| 1787928597 | 30° C | 76% | 1022.8 hPa | 0 mm | - | 617 W/m² | - |
| 1787928295 | 29.44° C | 79% | 1022.7 hPa | 0 mm | - | 553 W/m² | - |
| 1787927994 | 28.89° C | 81% | 1022.6 hPa | 0 mm | - | 555 W/m² | - |
| 1787927689 | 28.89° C | 80% | 1022.7 hPa | 0 mm | - | 529 W/m² | - |
| 1787927388 | 28.33° C | 82% | 1022.8 hPa | 0 mm | - | 501 W/m² | - |
| 1787927085 | 27.78° C | 85% | 1022.5 hPa | 0 mm | - | 498 W/m² | - |
| 1787926779 | 28.33° C | 82% | 1022.7 hPa | 0 mm | - | 426 W/m² | - |
| 1787926478 | 28.33° C | 82% | 1022.9 hPa | 0 mm | - | 491 W/m² | - |
| 1787926177 | 28.33° C | 82% | 1022.8 hPa | 0 mm | - | 462 W/m² | - |
| 1787925876 | 27.22° C | 87% | 1022.8 hPa | 0 mm | - | 421 W/m² | - |
| 1787925571 | 27.22° C | 88% | 1022.7 hPa | 0 mm | - | 378 W/m² | - |
* Rain latest hour (hover to see other rain measurements)
** Current wind speed in m/s (hover to see current wind gust speed)